Indiantown, Florida
Current Conditions -  °F | °C
As of 10:47 AM on Wednesday 28 Jan 2015 (Local Time) from KSUA Reporting Station
Few Clouds Few Clouds  
Wind Chill: 59°   Ceiling: Unl
Heat Index: 59°   Visibility: 10mi
Dew Point: 32°   Wind: 9mph
Humidity: 36%   Direction: 350°N
Pressure: 30.2"   Gusts: NA
Location:  27.03°N, 80.49°W
Report Text: KSUA 281547Z 35008KT 10SM FEW050 15/00 A3020
Loading
Personal Weather Stations






























Interactive Weather Map New forecast layout! Learn more

10-Day Weather Forecast

Advertisements
Track Severe Weather on mobile